This is the latest recevied weather packets stored in our database for station/object OK1CBR-13. If no packets are shown the sender has not sent any weather packets the latest 10 day(s).
| Time | Temp. | Humidity | Pressure | Rain* | Wind** | Luminosity | Snow |
|---|---|---|---|---|---|---|---|
| 1777699653 | 7.78° C | 83% | 1026.5 hPa | - | - | - | - |
| 1777699052 | 7.22° C | 86% | 1026.5 hPa | - | - | - | - |
| 1777698452 | 6.67° C | 87% | 1026.5 hPa | - | - | - | - |
| 1777697853 | 6.67° C | 86% | 1026.5 hPa | - | - | - | - |
| 1777697253 | 6.67° C | 86% | 1026.5 hPa | - | - | - | - |
| 1777696053 | 6.11° C | 80% | 1026.4 hPa | - | - | - | - |
| 1777695453 | 6.11° C | 80% | 1026.4 hPa | - | - | - | - |
| 1777694853 | 6.11° C | 80% | 1026.4 hPa | - | - | - | - |
| 1777694256 | 6.11° C | 82% | 1026.4 hPa | - | - | - | - |
| 1777693651 | 6.11° C | 83% | 1026.4 hPa | - | - | - | - |
| 1777693051 | 6.11° C | 79% | 1026.4 hPa | - | - | - | - |
| 1777692451 | 6.67° C | 79% | 1026.4 hPa | - | - | - | - |
| 1777691851 | 6.67° C | 81% | 1026.4 hPa | - | - | - | - |
| 1777691251 | 6.67° C | 79% | 1026.4 hPa | - | - | - | - |
| 1777690654 | 6.67° C | 78% | 1026.4 hPa | - | - | - | - |
| 1777690051 | 7.22° C | 78% | 1026.5 hPa | - | - | - | - |
| 1777689451 | 7.22° C | 79% | 1026.5 hPa | - | - | - | - |
| 1777673252 | 11.67° C | 58% | 1026.9 hPa | - | - | - | - |
| 1777672652 | 11.67° C | 57% | 1026.8 hPa | - | - | - | - |
| 1777672052 | 12.22° C | 56% | 1026.7 hPa | - | - | - | - |
| 1777671452 | 12.22° C | 55% | 1026.7 hPa | - | - | - | - |
| 1777670852 | 12.78° C | 54% | 1026.7 hPa | - | - | - | - |
| 1777670252 | 12.78° C | 53% | 1026.7 hPa | - | - | - | - |
| 1777669652 | 12.78° C | 53% | 1026.7 hPa | - | - | - | - |
| 1777669052 | 13.33° C | 52% | 1026.6 hPa | - | - | - | - |
* Rain since midnight (hover to see other rain measurements)
** Current wind speed in m/s (hover to see current wind gust speed)